Aviation Digital Data Service (ADDS)

Output produced by METARs form (0305 UTC 22 October 2014)
found at http://aviationweather.gov/adds/metars/
 
KCDW 220253Z 05005KT 8SM CLR 12/10 A2992 RMK AO2 SLP136 60008 T01170100 53005
KMMU 220255Z AUTO 00000KT 1/2SM FG BKN003 10/09 A2991 RMK AO2
KFWN 220253Z AUTO 03009KT 10SM OVC008 12/09 A2994 RMK AO2 SLP138 T01220094 51008
KTEB 220251Z 03004KT 10SM SCT024 SCT090 BKN110 14/11 A2990 RMK AO2 RAE44 SLP126 P0000 60011 T01390111 51012
KTEB 220227Z 2202/2224 03006KT P6SM SCT035 BKN090 
     FM220800 01007KT 6SM -RA BR BKN025 
     FM221300 01011G18KT 6SM BR VCSH BKN015
       
KEWR 220251Z 02007KT 10SM FEW020 SCT045 SCT090 BKN200 13/12 A2991 RMK AO2 SLP126 60000 T01280117 53009
KEWR 220227Z 2202/2306 02008KT P6SM SCT035 BKN120 
     FM220800 02011KT 6SM -RA BR BKN025 
     FM221400 01015G22KT 6SM BR VCSH BKN015 
     FM230000 35018G27KT 4SM -RA BR BKN010
       
KABE 220251Z 04004KT 10SM FEW042 BKN055 12/09 A2992 RMK AO2 SLP133 60000 T01170094 53014
KABE 212338Z 2200/2224 36003KT P6SM OVC040 
     TEMPO 2200/2204 5SM -SHRA 
     FM220600 03007KT 6SM -RA BKN020 
     FM221000 03009KT 4SM -RA BR SCT008 OVC012 
     FM221500 03012G20KT 5SM -RA BR BKN020 
     FM222100 36014KT P6SM -SHRA OVC025
       
KAVP 220259Z 00000KT 4SM BR BKN013 OVC090 11/09 A2995 RMK AO2 T01060089
KAVP 212341Z 2200/2224 05004KT P6SM -SHRA SCT025 OVC040 
     FM220300 03004KT P6SM -SHRA OVC025 
     FM220600 02004KT 4SM BR OVC015 
     FM221500 35007KT P6SM OVC022
       
KSWF 220245Z VRB03KT 6SM -RA BR OVC009 11/11 A2996
KSWF 220227Z 2202/2306 VRB05KT P6SM VCSH SCT007 BKN040 
     TEMPO 2202/2204 6SM -SHRA BR BKN007 
     FM220700 05007KT 6SM -RA BR BKN015 
     FM221000 04009KT 4SM BR VCSH BKN015 
     FM221900 03012G19KT 4SM BR VCSH BKN020 
     FM230200 01013G22KT 5SM -RA BR BKN015 AMD NOT SKED
       
KMSV 220255Z AUTO 07004KT 10SM OVC004 09/09 A2997 RMK AO1 52017
KPOU 220253Z AUTO 02005KT 7SM FEW005 BKN024 OVC049 12/11 A2996 RMK AO2 RAE29 SLP141 P0003 60007 T01170106 51017 TSNO
KPOU 220300Z 2203/2224 02005KT 6SM BR VCSH BKN025 OVC045 
     TEMPO 2203/2205 4SM -SHRA BR SCT005 OVC025 
     FM220800 02005KT 5SM BR VCSH OVC015 
     FM221000 01005KT 5SM BR VCSH SCT007 OVC015 
     FM221500 02008KT 3SM -RA BR SCT007 OVC010